Time;durP1;ratioP1;P1;durP2;ratioP2;P2;SDS_P1;SDS_P2;PMS_P1;PMS_P2;Temp;Humidity;BMP_temperature;BMP_pressure;BME280_temperature;BME280_humidity;BME280_pressure;Samples;Min_cycle;Max_cycle;Signal;HPM_P1;HPM_P2
2022/11/13 00:01:18;;;;;;;34.85;13.07;;;;;;;;;;5001217;28;20576;-71
2022/11/13 00:04:03;;;;;;;53.95;12.38;;;;;;;;;;5006677;28;20526;-71
2022/11/13 00:06:47;;;;;;;46.75;12.52;;;;;;;;;;5007163;28;20085;-72
2022/11/13 00:09:31;;;;;;;21.83;11.95;;;;;;;;;;5006085;28;20052;-71
2022/11/13 00:12:15;;;;;;;35.58;9.77;;;;;;;;;;4988449;28;20061;-71
2022/11/13 00:14:59;;;;;;;42.85;10.98;;;;;;;;;;5007291;28;20134;-70
2022/11/13 00:17:44;;;;;;;26.73;9.63;;;;;;;;;;5006034;28;20057;-71
2022/11/13 00:20:28;;;;;;;26.48;11.38;;;;;;;;;;5004214;28;20084;-72
2022/11/13 00:23:12;;;;;;;40.28;11.80;;;;;;;;;;5015113;28;20076;-72
2022/11/13 00:26:03;;;;;;;44.95;11.02;;;;;;;;;;5010782;28;20105;-71
2022/11/13 00:28:52;;;;;;;88.13;14.82;;;;;;;;;;5005809;28;20085;-71
2022/11/13 00:31:36;;;;;;;42.25;13.57;;;;;;;;;;5005117;28;20108;-72
2022/11/13 00:34:21;;;;;;;41.38;13.68;;;;;;;;;;4989779;28;20107;-71
2022/11/13 00:37:05;;;;;;;27.70;11.55;;;;;;;;;;5005845;28;20166;-72
2022/11/13 00:39:49;;;;;;;31.73;11.18;;;;;;;;;;5004104;28;20113;-71
2022/11/13 00:42:33;;;;;;;67.57;11.93;;;;;;;;;;5004396;28;20057;-71
2022/11/13 00:45:17;;;;;;;47.08;11.65;;;;;;;;;;5004797;28;20060;-70
2022/11/13 00:48:01;;;;;;;46.95;11.70;;;;;;;;;;5004240;28;20057;-70
2022/11/13 00:50:46;;;;;;;22.02;10.75;;;;;;;;;;5004510;28;20096;-72
2022/11/13 00:53:30;;;;;;;80.63;11.13;;;;;;;;;;5004381;28;20072;-71
2022/11/13 00:56:14;;;;;;;32.40;9.68;;;;;;;;;;5002563;28;20061;-72
2022/11/13 00:58:58;;;;;;;23.25;9.93;;;;;;;;;;5005362;28;20414;-71
2022/11/13 01:01:42;;;;;;;30.10;10.07;;;;;;;;;;5003166;28;20438;-71
2022/11/13 01:04:28;;;;;;;81.93;10.15;;;;;;;;;;5002995;28;21169;-71
2022/11/13 01:07:12;;;;;;;38.58;9.52;;;;;;;;;;5001904;28;20618;-72
2022/11/13 01:09:56;;;;;;;107.03;11.75;;;;;;;;;;5001728;28;20954;-72
2022/11/13 01:12:40;;;;;;;45.53;9.60;;;;;;;;;;5002500;28;20052;-72
2022/11/13 01:15:25;;;;;;;144.07;11.73;;;;;;;;;;5003206;28;21003;-71
2022/11/13 01:18:10;;;;;;;61.75;10.32;;;;;;;;;;5001568;28;20049;-71
2022/11/13 01:21:02;;;;;;;63.55;11.07;;;;;;;;;;5003439;28;20108;-71
2022/11/13 01:23:46;;;;;;;110.63;12.63;;;;;;;;;;5003674;28;20084;-71
2022/11/13 01:26:30;;;;;;;43.90;9.77;;;;;;;;;;5003599;28;20146;-72
2022/11/13 01:29:15;;;;;;;47.40;10.05;;;;;;;;;;5003653;28;20060;-72
2022/11/13 01:31:59;;;;;;;126.75;12.15;;;;;;;;;;5003277;28;20644;-71
2022/11/13 01:34:43;;;;;;;70.97;11.30;;;;;;;;;;5003988;28;20433;-72
2022/11/13 01:37:27;;;;;;;99.78;11.93;;;;;;;;;;5003021;28;20092;-71
2022/11/13 01:40:13;;;;;;;134.70;13.40;;;;;;;;;;4993469;28;20061;-70
2022/11/13 01:42:57;;;;;;;114.50;13.57;;;;;;;;;;4997692;28;20053;-71
2022/11/13 01:45:59;;;;;;;82.57;12.38;;;;;;;;;;5002905;28;20072;-70
2022/11/13 01:48:51;;;;;;;209.80;13.95;;;;;;;;;;5003501;28;20053;-71
2022/11/13 01:51:52;;;;;;;152.05;13.63;;;;;;;;;;5004300;28;20134;-71
2022/11/13 01:54:41;;;;;;;118.20;13.90;;;;;;;;;;4994903;28;20417;-71
2022/11/13 01:57:25;;;;;;;67.72;13.80;;;;;;;;;;5001766;28;20061;-71
2022/11/13 02:00:10;;;;;;;81.75;12.20;;;;;;;;;;5001144;28;20096;-71
2022/11/13 02:02:54;;;;;;;98.05;13.32;;;;;;;;;;5002441;28;20271;-71
2022/11/13 02:05:38;;;;;;;59.90;11.55;;;;;;;;;;5005125;28;20100;-71
2022/11/13 02:08:23;;;;;;;37.67;10.35;;;;;;;;;;5000485;28;20056;-72
2022/11/13 02:11:07;;;;;;;26.70;9.93;;;;;;;;;;5003287;28;20112;-71
2022/11/13 02:13:51;;;;;;;15.63;9.88;;;;;;;;;;5002747;28;20064;-72
2022/11/13 02:16:37;;;;;;;13.77;9.45;;;;;;;;;;4997665;28;20072;-71
2022/11/13 02:19:26;;;;;;;23.10;10.15;;;;;;;;;;5002247;28;20060;-70
2022/11/13 02:22:23;;;;;;;32.42;9.30;;;;;;;;;;4991890;28;20056;-72
2022/11/13 02:25:08;;;;;;;29.80;9.43;;;;;;;;;;5002234;28;20084;-71
2022/11/13 02:27:52;;;;;;;15.43;9.25;;;;;;;;;;5002736;28;20060;-73
2022/11/13 02:30:36;;;;;;;41.45;8.80;;;;;;;;;;4996264;28;20060;-71
2022/11/13 02:33:29;;;;;;;36.50;9.05;;;;;;;;;;5003036;28;20176;-72
2022/11/13 02:36:13;;;;;;;57.67;9.40;;;;;;;;;;4990957;28;20450;-72
2022/11/13 02:39:01;;;;;;;72.57;8.55;;;;;;;;;;5002426;28;20080;-72
2022/11/13 02:41:45;;;;;;;65.60;9.65;;;;;;;;;;4999911;28;20064;-71
2022/11/13 02:44:30;;;;;;;90.03;8.98;;;;;;;;;;5001735;28;20610;-72
2022/11/13 02:47:14;;;;;;;86.38;8.77;;;;;;;;;;5002146;28;20060;-71
2022/11/13 02:49:58;;;;;;;62.70;8.95;;;;;;;;;;5001238;28;20088;-71
2022/11/13 02:52:43;;;;;;;84.15;8.85;;;;;;;;;;4997877;28;20060;-72
2022/11/13 02:55:27;;;;;;;73.78;9.70;;;;;;;;;;5001852;28;20057;-71
2022/11/13 02:58:11;;;;;;;112.68;11.95;;;;;;;;;;4982982;28;20610;-70
2022/11/13 03:00:55;;;;;;;72.90;10.18;;;;;;;;;;5001257;28;20061;-71
2022/11/13 03:03:39;;;;;;;143.77;12.38;;;;;;;;;;5000628;28;20060;-73
2022/11/13 03:06:24;;;;;;;103.53;10.98;;;;;;;;;;4992695;28;20052;-72
2022/11/13 03:09:08;;;;;;;69.95;10.73;;;;;;;;;;4993388;28;20053;-72
2022/11/13 03:11:52;;;;;;;121.60;12.30;;;;;;;;;;5001582;28;20057;-72
2022/11/13 03:14:36;;;;;;;103.13;12.13;;;;;;;;;;5003113;28;20060;-72
2022/11/13 03:17:20;;;;;;;75.65;11.00;;;;;;;;;;5004273;28;20138;-72
2022/11/13 03:20:04;;;;;;;51.03;10.25;;;;;;;;;;4992413;28;20060;-71
2022/11/13 03:22:49;;;;;;;51.65;10.93;;;;;;;;;;5002082;28;20103;-72
2022/11/13 03:25:33;;;;;;;127.28;13.27;;;;;;;;;;5000565;28;20096;-71
2022/11/13 03:28:17;;;;;;;29.23;10.27;;;;;;;;;;4998922;28;20053;-73
2022/11/13 03:31:02;;;;;;;101.55;11.25;;;;;;;;;;5000998;28;20100;-72
2022/11/13 03:33:46;;;;;;;65.57;9.50;;;;;;;;;;4993050;28;20625;-72
2022/11/13 03:36:30;;;;;;;54.30;10.05;;;;;;;;;;4991972;28;20112;-72
2022/11/13 03:39:14;;;;;;;38.78;10.23;;;;;;;;;;5000400;28;20123;-72
2022/11/13 03:41:58;;;;;;;64.70;11.55;;;;;;;;;;5000617;28;20108;-71
2022/11/13 03:44:42;;;;;;;90.50;11.50;;;;;;;;;;5001672;28;20057;-70
2022/11/13 03:47:26;;;;;;;41.22;10.82;;;;;;;;;;5000900;28;20065;-72
2022/11/13 03:50:11;;;;;;;89.57;11.27;;;;;;;;;;4983809;28;20145;-70
2022/11/13 03:52:55;;;;;;;52.22;12.07;;;;;;;;;;5002251;28;20064;-72
2022/11/13 03:55:39;;;;;;;109.80;12.10;;;;;;;;;;5001506;28;20077;-71
2022/11/13 03:58:24;;;;;;;47.42;11.30;;;;;;;;;;4998111;28;20053;-71
2022/11/13 04:01:08;;;;;;;57.35;10.55;;;;;;;;;;5001536;28;20107;-72
2022/11/13 04:03:52;;;;;;;64.35;11.30;;;;;;;;;;5000780;28;20049;-71
2022/11/13 04:06:36;;;;;;;97.18;12.23;;;;;;;;;;5001187;28;20084;-72
2022/11/13 04:09:21;;;;;;;63.33;10.35;;;;;;;;;;5000320;28;20088;-72
2022/11/13 04:12:05;;;;;;;89.97;11.63;;;;;;;;;;4998554;28;20061;-71
2022/11/13 04:14:49;;;;;;;67.05;11.57;;;;;;;;;;5001067;28;20072;-71
2022/11/13 04:17:33;;;;;;;100.88;12.23;;;;;;;;;;5001851;28;20111;-71
2022/11/13 04:20:18;;;;;;;113.95;13.98;;;;;;;;;;4982792;28;20100;-71
2022/11/13 04:23:06;;;;;;;72.40;11.73;;;;;;;;;;5000814;28;20053;-70
2022/11/13 04:25:50;;;;;;;59.88;11.30;;;;;;;;;;5001047;28;20056;-71
2022/11/13 04:28:35;;;;;;;36.75;10.57;;;;;;;;;;5000387;28;20065;-71
2022/11/13 04:31:19;;;;;;;45.38;9.10;;;;;;;;;;4999525;28;20057;-72
2022/11/13 04:34:03;;;;;;;48.67;9.43;;;;;;;;;;4999952;28;20065;-72
2022/11/13 04:36:47;;;;;;;72.68;9.43;;;;;;;;;;4999666;28;20130;-71
2022/11/13 04:39:31;;;;;;;97.57;10.48;;;;;;;;;;5000282;28;20080;-72
2022/11/13 04:45:21;;;;;;;82.88;9.73;;;;;;;;;;5004174;28;20122;-71
2022/11/13 04:48:05;;;;;;;77.72;9.95;;;;;;;;;;5003599;28;20537;-72
2022/11/13 04:50:49;;;;;;;66.82;10.23;;;;;;;;;;5002469;28;20351;-71
2022/11/13 04:53:33;;;;;;;63.40;9.50;;;;;;;;;;5002263;28;20072;-72
2022/11/13 04:56:18;;;;;;;63.65;8.55;;;;;;;;;;5001260;28;20092;-71
2022/11/13 04:59:02;;;;;;;43.15;8.52;;;;;;;;;;5003628;28;20060;-72
2022/11/13 05:01:46;;;;;;;46.63;8.88;;;;;;;;;;5002667;28;20414;-72
2022/11/13 05:04:30;;;;;;;76.22;9.45;;;;;;;;;;5002828;28;20809;-72
2022/11/13 05:07:14;;;;;;;49.25;10.02;;;;;;;;;;5000618;28;20116;-72
2022/11/13 05:09:58;;;;;;;55.13;9.32;;;;;;;;;;5004770;28;20060;-71
2022/11/13 05:12:42;;;;;;;52.97;8.98;;;;;;;;;;5003986;28;20084;-71
2022/11/13 05:15:26;;;;;;;152.05;10.93;;;;;;;;;;5001579;28;20989;-71
2022/11/13 05:18:10;;;;;;;90.25;9.20;;;;;;;;;;5000930;28;20052;-71
2022/11/13 05:20:55;;;;;;;159.25;10.40;;;;;;;;;;5002765;28;20053;-71
2022/11/13 05:23:39;;;;;;;72.80;9.63;;;;;;;;;;5003888;28;20060;-71
2022/11/13 05:26:25;;;;;;;59.20;9.15;;;;;;;;;;5000287;28;20080;-71
2022/11/13 05:29:09;;;;;;;134.38;11.60;;;;;;;;;;5003290;28;20101;-70
2022/11/13 05:31:53;;;;;;;106.75;11.77;;;;;;;;;;5002058;28;20065;-71
2022/11/13 05:34:37;;;;;;;110.93;22.48;;;;;;;;;;5003389;28;20052;-71
2022/11/13 05:37:21;;;;;;;88.32;14.18;;;;;;;;;;5002598;28;20065;-72
2022/11/13 05:40:06;;;;;;;43.92;10.63;;;;;;;;;;5002325;28;20462;-71
2022/11/13 05:42:52;;;;;;;22.65;11.18;;;;;;;;;;5003232;28;20052;-71
2022/11/13 05:45:36;;;;;;;107.60;12.25;;;;;;;;;;5003068;28;20112;-71
2022/11/13 05:48:20;;;;;;;52.42;9.52;;;;;;;;;;4999567;28;20124;-70
2022/11/13 05:51:13;;;;;;;68.70;9.20;;;;;;;;;;5002172;28;20065;-71
2022/11/13 05:53:58;;;;;;;22.52;9.30;;;;;;;;;;5001260;28;20052;-71
2022/11/13 05:56:42;;;;;;;116.05;10.68;;;;;;;;;;5001166;28;20064;-72
2022/11/13 05:59:26;;;;;;;14.02;8.63;;;;;;;;;;5002222;28;20115;-73
2022/11/13 06:02:10;;;;;;;33.45;8.75;;;;;;;;;;5000907;28;20057;-72
2022/11/13 06:04:54;;;;;;;62.88;10.05;;;;;;;;;;5003299;28;20080;-71
2022/11/13 06:07:38;;;;;;;56.10;8.98;;;;;;;;;;5005817;28;20060;-71
2022/11/13 06:10:23;;;;;;;58.33;8.52;;;;;;;;;;4995528;28;20068;-71
2022/11/13 06:13:07;;;;;;;133.75;10.38;;;;;;;;;;5001418;28;20528;-71
2022/11/13 06:15:51;;;;;;;204.25;12.18;;;;;;;;;;5001764;28;20048;-72
2022/11/13 06:18:36;;;;;;;89.45;10.48;;;;;;;;;;5002247;28;20445;-72
2022/11/13 06:21:24;;;;;;;56.38;9.68;;;;;;;;;;4999264;28;20905;-71
2022/11/13 06:24:11;;;;;;;86.05;9.18;;;;;;;;;;5001544;28;20111;-71
2022/11/13 06:26:54;;;;;;;19.75;7.07;;;;;;;;;;5002220;28;20073;-72
2022/11/13 06:29:39;;;;;;;84.68;8.57;;;;;;;;;;5002025;28;20060;-71
2022/11/13 06:32:23;;;;;;;80.38;9.02;;;;;;;;;;4998272;28;20115;-71
2022/11/13 06:35:07;;;;;;;44.28;7.68;;;;;;;;;;5001553;28;20077;-72
2022/11/13 06:37:54;;;;;;;19.13;7.38;;;;;;;;;;5000865;28;20048;-71
2022/11/13 06:40:38;;;;;;;34.88;7.63;;;;;;;;;;4996929;28;20056;-72
2022/11/13 06:43:22;;;;;;;89.78;7.47;;;;;;;;;;5000594;28;20068;-71
2022/11/13 06:46:13;;;;;;;158.07;10.23;;;;;;;;;;4993228;28;20145;-72
2022/11/13 06:48:57;;;;;;;46.92;7.18;;;;;;;;;;5001405;28;20056;-72
2022/11/13 06:51:41;;;;;;;59.05;6.30;;;;;;;;;;4999471;28;20192;-73
2022/11/13 06:54:25;;;;;;;13.25;6.20;;;;;;;;;;4999923;28;20411;-72
2022/11/13 06:57:09;;;;;;;23.50;6.30;;;;;;;;;;5001463;28;20407;-72
2022/11/13 06:59:54;;;;;;;31.20;6.35;;;;;;;;;;5000531;28;20059;-72
2022/11/13 07:02:38;;;;;;;86.88;7.15;;;;;;;;;;4996509;28;20065;-73
2022/11/13 07:05:22;;;;;;;35.42;6.50;;;;;;;;;;5000186;28;20869;-72
2022/11/13 07:08:06;;;;;;;32.08;6.43;;;;;;;;;;5000498;28;20052;-73
2022/11/13 07:10:54;;;;;;;102.20;7.28;;;;;;;;;;5000770;28;20161;-72
2022/11/13 07:13:39;;;;;;;29.02;7.00;;;;;;;;;;5000944;28;20673;-72
2022/11/13 07:16:23;;;;;;;24.38;7.35;;;;;;;;;;4997543;28;20079;-73
2022/11/13 07:19:07;;;;;;;49.22;7.53;;;;;;;;;;5000761;28;20088;-72
2022/11/13 07:21:51;;;;;;;71.38;8.50;;;;;;;;;;4997389;28;20061;-72
2022/11/13 07:24:35;;;;;;;34.20;7.07;;;;;;;;;;4998820;28;20128;-72
2022/11/13 07:27:19;;;;;;;84.68;9.05;;;;;;;;;;4999742;28;20532;-72
2022/11/13 07:30:04;;;;;;;68.65;8.18;;;;;;;;;;4999190;28;20088;-72
2022/11/13 07:32:49;;;;;;;48.80;7.15;;;;;;;;;;5000417;28;20104;-72
2022/11/13 07:35:33;;;;;;;75.78;8.43;;;;;;;;;;5001062;28;20069;-72
2022/11/13 07:38:17;;;;;;;13.90;6.40;;;;;;;;;;4982090;28;20107;-72
2022/11/13 07:41:02;;;;;;;58.67;7.57;;;;;;;;;;5000451;28;20052;-72
2022/11/13 07:43:45;;;;;;;34.53;7.32;;;;;;;;;;5000461;28;20088;-72
2022/11/13 07:46:29;;;;;;;47.33;9.55;;;;;;;;;;4994882;28;20064;-73
2022/11/13 07:49:13;;;;;;;42.85;9.32;;;;;;;;;;4999879;28;20132;-73
2022/11/13 07:51:58;;;;;;;42.92;9.07;;;;;;;;;;4998258;28;20229;-72
2022/11/13 07:54:42;;;;;;;18.63;8.27;;;;;;;;;;5000755;28;20056;-72
2022/11/13 07:57:26;;;;;;;31.27;8.77;;;;;;;;;;5000482;28;20124;-72
2022/11/13 08:00:11;;;;;;;43.20;8.57;;;;;;;;;;4999334;28;20520;-72
2022/11/13 08:02:55;;;;;;;57.60;7.10;;;;;;;;;;4999184;28;20285;-72
2022/11/13 08:05:39;;;;;;;113.28;8.80;;;;;;;;;;5000350;28;20053;-72
2022/11/13 08:08:23;;;;;;;106.63;9.60;;;;;;;;;;4997941;28;20053;-72
2022/11/13 08:11:08;;;;;;;59.65;8.15;;;;;;;;;;5012218;28;20065;-72
2022/11/13 08:13:52;;;;;;;46.60;8.45;;;;;;;;;;4994503;28;20053;-72
2022/11/13 08:16:36;;;;;;;131.38;10.35;;;;;;;;;;5003415;28;20064;-72
2022/11/13 08:19:20;;;;;;;36.85;9.20;;;;;;;;;;5004281;28;20057;-72
2022/11/13 08:22:04;;;;;;;46.67;8.95;;;;;;;;;;5003084;28;20119;-72
2022/11/13 08:24:52;;;;;;;51.15;9.13;;;;;;;;;;5003765;28;20454;-72
2022/11/13 08:27:37;;;;;;;102.00;10.75;;;;;;;;;;5004016;28;20088;-72
2022/11/13 08:30:23;;;;;;;71.07;9.75;;;;;;;;;;5001492;28;20395;-72
2022/11/13 08:33:07;;;;;;;27.48;8.43;;;;;;;;;;5003208;28;20738;-72
2022/11/13 08:35:56;;;;;;;33.33;8.38;;;;;;;;;;5003441;28;20461;-72
2022/11/13 08:38:40;;;;;;;57.88;9.88;;;;;;;;;;5004089;28;20056;-72
2022/11/13 08:41:24;;;;;;;57.22;10.98;;;;;;;;;;5004165;28;20060;-72
2022/11/13 08:44:11;;;;;;;29.85;9.20;;;;;;;;;;5001687;28;20188;-72
2022/11/13 08:46:55;;;;;;;29.42;8.65;;;;;;;;;;5003757;28;20605;-72
2022/11/13 08:49:39;;;;;;;83.72;11.23;;;;;;;;;;5003770;28;20049;-71
2022/11/13 08:52:24;;;;;;;60.55;13.65;;;;;;;;;;5000140;28;20177;-72
2022/11/13 08:55:08;;;;;;;84.72;15.80;;;;;;;;;;5002920;28;20056;-72
2022/11/13 08:57:53;;;;;;;58.42;16.17;;;;;;;;;;5003262;28;20065;-72
2022/11/13 09:00:37;;;;;;;98.72;16.10;;;;;;;;;;5002519;28;20048;-72
2022/11/13 09:03:21;;;;;;;138.18;18.98;;;;;;;;;;5003510;28;20056;-72
2022/11/13 09:06:06;;;;;;;67.88;18.30;;;;;;;;;;5003009;28;20052;-72
2022/11/13 09:08:50;;;;;;;69.40;18.40;;;;;;;;;;5002886;28;20100;-72
2022/11/13 09:11:35;;;;;;;80.18;17.10;;;;;;;;;;5003307;28;20061;-72
2022/11/13 09:14:19;;;;;;;50.58;17.85;;;;;;;;;;4986660;28;20205;-72
2022/11/13 09:17:03;;;;;;;49.47;18.38;;;;;;;;;;5003589;28;20188;-72
2022/11/13 09:19:47;;;;;;;62.53;18.38;;;;;;;;;;4999665;28;20071;-72
2022/11/13 09:22:32;;;;;;;49.60;17.60;;;;;;;;;;5002985;28;20520;-72
2022/11/13 09:25:17;;;;;;;38.17;16.33;;;;;;;;;;5003186;28;20082;-72
2022/11/13 09:28:02;;;;;;;39.30;15.27;;;;;;;;;;5002284;28;20108;-72
2022/11/13 09:30:46;;;;;;;29.13;14.60;;;;;;;;;;5002658;28;20065;-72
2022/11/13 09:33:31;;;;;;;33.03;13.00;;;;;;;;;;5003543;28;20879;-72
2022/11/13 09:36:16;;;;;;;32.50;14.50;;;;;;;;;;4986482;28;20057;-72
2022/11/13 09:39:00;;;;;;;30.48;14.38;;;;;;;;;;4994327;28;20056;-72
2022/11/13 09:42:03;;;;;;;27.33;15.15;;;;;;;;;;5001392;28;20056;-72
2022/11/13 09:44:53;;;;;;;23.67;12.70;;;;;;;;;;5003276;28;20057;-72
2022/11/13 09:47:42;;;;;;;15.77;10.75;;;;;;;;;;5002339;28;20056;-72
2022/11/13 09:50:29;;;;;;;18.45;11.50;;;;;;;;;;5000837;28;20218;-72
2022/11/13 09:53:14;;;;;;;20.55;13.10;;;;;;;;;;4995120;28;20064;-72
2022/11/13 09:56:14;;;;;;;18.58;11.63;;;;;;;;;;5002587;28;20060;-73
2022/11/13 09:59:22;;;;;;;23.25;12.48;;;;;;;;;;5003766;28;20077;-72
2022/11/13 10:02:29;;;;;;;21.20;12.70;;;;;;;;;;4995523;28;20052;-72
2022/11/13 10:05:30;;;;;;;23.02;13.27;;;;;;;;;;5016601;28;20970;-72
2022/11/13 10:08:16;;;;;;;16.38;10.82;;;;;;;;;;5002474;28;20052;-72
2022/11/13 10:11:23;;;;;;;16.60;10.07;;;;;;;;;;5002438;28;20171;-72
2022/11/13 10:14:25;;;;;;;20.05;11.73;;;;;;;;;;5001545;28;20056;-72
2022/11/13 10:17:37;;;;;;;15.03;10.07;;;;;;;;;;5003062;28;20088;-72
2022/11/13 10:20:37;;;;;;;15.25;8.98;;;;;;;;;;5000249;28;20347;-73
2022/11/13 10:23:28;;;;;;;11.48;7.70;;;;;;;;;;5001635;28;20065;-72
2022/11/13 10:26:16;;;;;;;12.50;8.88;;;;;;;;;;5001917;28;20522;-72
2022/11/13 10:29:14;;;;;;;12.40;9.02;;;;;;;;;;5002101;28;20056;-72
2022/11/13 10:32:12;;;;;;;13.45;9.07;;;;;;;;;;5000961;28;20422;-73
2022/11/13 10:35:06;;;;;;;13.75;9.52;;;;;;;;;;5000819;28;20057;-73
2022/11/13 10:38:02;;;;;;;14.27;9.43;;;;;;;;;;5000364;28;20166;-72
2022/11/13 10:40:47;;;;;;;12.07;7.80;;;;;;;;;;5001377;28;20107;-73
2022/11/13 10:43:30;;;;;;;9.25;6.90;;;;;;;;;;5001833;28;20057;-73
2022/11/13 10:46:19;;;;;;;9.00;6.97;;;;;;;;;;4997350;28;20084;-73
2022/11/13 10:49:18;;;;;;;9.32;6.55;;;;;;;;;;4993082;28;20676;-73
2022/11/13 10:52:02;;;;;;;9.02;6.60;;;;;;;;;;5000633;28;20201;-73
2022/11/13 10:54:48;;;;;;;11.48;7.50;;;;;;;;;;5001546;28;20092;-72
2022/11/13 10:57:33;;;;;;;14.55;7.75;;;;;;;;;;5000897;28;20410;-73
2022/11/13 11:00:20;;;;;;;11.80;8.20;;;;;;;;;;4998342;28;20057;-72
2022/11/13 11:03:12;;;;;;;12.10;7.97;;;;;;;;;;5000979;28;20061;-73
2022/11/13 11:05:59;;;;;;;10.77;6.70;;;;;;;;;;5000057;28;20126;-72
2022/11/13 11:08:43;;;;;;;10.30;7.20;;;;;;;;;;5000204;28;20100;-73
2022/11/13 11:14:37;;;;;;;9.35;7.20;;;;;;;;;;4998701;28;20057;-72
2022/11/13 11:17:30;;;;;;;10.48;7.00;;;;;;;;;;5000996;28;20460;-73
2022/11/13 11:20:20;;;;;;;9.80;6.90;;;;;;;;;;4999779;28;20096;-73
2022/11/13 11:23:23;;;;;;;7.65;6.00;;;;;;;;;;5000044;28;20143;-72
2022/11/13 11:26:22;;;;;;;9.60;6.35;;;;;;;;;;5000613;28;20048;-73
2022/11/13 11:29:13;;;;;;;10.88;7.63;;;;;;;;;;5000730;28;20138;-73
2022/11/13 11:32:11;;;;;;;8.85;5.97;;;;;;;;;;4999627;28;20068;-73
2022/11/13 11:35:15;;;;;;;8.88;6.03;;;;;;;;;;4997252;28;20557;-73
2022/11/13 11:38:06;;;;;;;8.75;6.45;;;;;;;;;;4999478;28;20081;-73
2022/11/13 11:40:55;;;;;;;8.57;6.93;;;;;;;;;;5000291;28;20067;-73
2022/11/13 11:43:45;;;;;;;8.60;6.75;;;;;;;;;;5000158;28;20108;-73
2022/11/13 11:46:29;;;;;;;8.05;6.88;;;;;;;;;;4998363;28;20521;-73
2022/11/13 11:49:14;;;;;;;9.73;7.05;;;;;;;;;;5001329;28;20057;-73
2022/11/13 11:52:09;;;;;;;11.38;7.80;;;;;;;;;;5002008;28;20148;-73
2022/11/13 11:54:56;;;;;;;8.23;6.78;;;;;;;;;;4999992;28;20057;-73
2022/11/13 11:57:49;;;;;;;8.05;5.90;;;;;;;;;;5005587;28;20084;-72
2022/11/13 12:00:38;;;;;;;8.73;6.50;;;;;;;;;;5003951;28;20132;-72
2022/11/13 12:03:25;;;;;;;6.97;4.93;;;;;;;;;;5005028;28;20069;-73
2022/11/13 12:06:33;;;;;;;8.43;6.30;;;;;;;;;;5004795;28;20084;-72
2022/11/13 12:09:29;;;;;;;8.23;5.70;;;;;;;;;;5005006;28;20068;-72
2022/11/13 12:12:16;;;;;;;9.23;6.72;;;;;;;;;;5005016;28;20510;-72
2022/11/13 12:15:08;;;;;;;9.23;6.32;;;;;;;;;;5004330;28;20513;-72
2022/11/13 12:18:27;;;;;;;8.52;6.55;;;;;;;;;;5004808;28;20452;-73
2022/11/13 12:21:29;;;;;;;9.63;7.25;;;;;;;;;;5005381;28;20041;-73
2022/11/13 12:24:40;;;;;;;10.82;7.88;;;;;;;;;;5004496;28;20557;-71
2022/11/13 12:27:42;;;;;;;14.80;5.53;;;;;;;;;;5005182;28;20061;-73
2022/11/13 12:30:52;;;;;;;9.00;6.55;;;;;;;;;;4995780;28;20112;-73
2022/11/13 12:33:51;;;;;;;7.88;6.57;;;;;;;;;;5005294;28;20522;-72
2022/11/13 12:36:35;;;;;;;8.25;6.32;;;;;;;;;;5002221;28;20124;-73
2022/11/13 12:39:54;;;;;;;9.77;6.65;;;;;;;;;;5004176;28;20148;-73
2022/11/13 12:42:54;;;;;;;8.48;6.22;;;;;;;;;;5001039;28;20096;-72
2022/11/13 12:45:38;;;;;;;7.78;6.55;;;;;;;;;;5007316;28;20065;-72
2022/11/13 12:48:31;;;;;;;9.10;6.80;;;;;;;;;;5017940;28;20151;-72
2022/11/13 12:51:17;;;;;;;9.77;6.60;;;;;;;;;;5001561;28;20430;-72
2022/11/13 12:54:01;;;;;;;8.82;7.00;;;;;;;;;;5002712;28;20208;-72
2022/11/13 12:56:45;;;;;;;10.77;7.53;;;;;;;;;;5003730;28;20099;-72
2022/11/13 12:59:33;;;;;;;10.65;7.57;;;;;;;;;;4992251;28;20072;-73
2022/11/13 13:02:32;;;;;;;11.10;7.30;;;;;;;;;;4997781;28;20131;-72
2022/11/13 13:05:22;;;;;;;11.75;7.97;;;;;;;;;;5001668;28;20056;-73
2022/11/13 13:08:25;;;;;;;11.77;8.02;;;;;;;;;;5013268;28;20068;-72
2022/11/13 13:11:34;;;;;;;11.82;6.75;;;;;;;;;;5000788;28;20157;-72
2022/11/13 13:14:31;;;;;;;10.27;7.30;;;;;;;;;;4998094;28;20132;-72
2022/11/13 13:17:21;;;;;;;14.60;7.13;;;;;;;;;;4998780;28;20085;-73
2022/11/13 13:20:34;;;;;;;10.35;7.00;;;;;;;;;;4999590;28;20102;-74
2022/11/13 13:23:36;;;;;;;9.52;6.88;;;;;;;;;;5000016;28;20057;-74
2022/11/13 13:26:25;;;;;;;9.32;7.50;;;;;;;;;;4987481;28;20056;-76
2022/11/13 13:29:23;;;;;;;9.95;6.53;;;;;;;;;;5000931;28;20099;-74
2022/11/13 13:32:19;;;;;;;10.13;6.70;;;;;;;;;;4997677;28;20611;-74
2022/11/13 13:35:37;;;;;;;10.15;7.13;;;;;;;;;;5001453;28;20099;-75
2022/11/13 13:38:36;;;;;;;8.60;6.90;;;;;;;;;;4985987;28;20061;-75
2022/11/13 13:41:51;;;;;;;15.13;7.15;;;;;;;;;;5000139;28;20053;-74
2022/11/13 13:44:51;;;;;;;11.57;7.80;;;;;;;;;;4997267;28;20060;-74
2022/11/13 13:47:39;;;;;;;11.05;7.93;;;;;;;;;;4998656;28;20200;-75
2022/11/13 13:50:37;;;;;;;10.40;7.43;;;;;;;;;;4992916;28;20053;-77
2022/11/13 13:53:25;;;;;;;9.40;7.32;;;;;;;;;;5002528;28;20052;-77
2022/11/13 13:56:12;;;;;;;10.77;8.05;;;;;;;;;;5003229;28;20104;-74
2022/11/13 13:58:57;;;;;;;15.05;7.82;;;;;;;;;;5004619;28;20052;-74
2022/11/13 14:01:57;;;;;;;9.95;7.95;;;;;;;;;;4996918;28;20107;-75
2022/11/13 14:04:49;;;;;;;9.52;7.50;;;;;;;;;;4988044;28;20157;-77
2022/11/13 14:07:34;;;;;;;10.13;7.60;;;;;;;;;;5003162;28;20064;-75
2022/11/13 14:10:21;;;;;;;7.90;7.03;;;;;;;;;;4996952;28;20084;-75
2022/11/13 14:13:05;;;;;;;11.55;8.85;;;;;;;;;;4998315;28;20056;-74
2022/11/13 14:16:02;;;;;;;13.93;7.88;;;;;;;;;;4996892;28;20052;-76
2022/11/13 14:18:46;;;;;;;8.93;7.50;;;;;;;;;;5000341;28;20740;-75
2022/11/13 14:21:30;;;;;;;10.98;7.53;;;;;;;;;;4999080;28;20096;-75
2022/11/13 14:24:33;;;;;;;9.68;7.78;;;;;;;;;;5001074;28;20143;-74
2022/11/13 14:27:21;;;;;;;9.82;8.18;;;;;;;;;;4997690;28;20053;-74
2022/11/13 14:30:21;;;;;;;11.07;8.40;;;;;;;;;;5000062;28;20140;-75
2022/11/13 14:33:10;;;;;;;12.88;7.68;;;;;;;;;;4999028;28;20115;-74
2022/11/13 14:35:56;;;;;;;8.40;6.70;;;;;;;;;;4991980;28;20937;-73
2022/11/13 14:38:43;;;;;;;11.23;7.28;;;;;;;;;;5000799;28;20406;-74
2022/11/13 14:41:45;;;;;;;10.43;7.18;;;;;;;;;;4999944;28;20052;-74
2022/11/13 14:44:33;;;;;;;9.47;7.90;;;;;;;;;;4997578;28;21004;-75
2022/11/13 14:47:24;;;;;;;8.40;7.20;;;;;;;;;;4999597;28;20080;-74
2022/11/13 14:50:25;;;;;;;12.95;7.57;;;;;;;;;;5000657;28;20061;-77
2022/11/13 14:53:10;;;;;;;10.93;8.90;;;;;;;;;;5002100;28;20561;-74
2022/11/13 14:55:57;;;;;;;11.63;8.35;;;;;;;;;;5002215;28;20111;-75
2022/11/13 14:58:46;;;;;;;10.35;8.27;;;;;;;;;;5000788;28;20052;-76
2022/11/13 15:01:31;;;;;;;13.98;8.07;;;;;;;;;;4999926;28;20252;-77
2022/11/13 15:04:15;;;;;;;11.00;8.38;;;;;;;;;;4999244;28;20052;-74
2022/11/13 15:07:01;;;;;;;12.02;8.75;;;;;;;;;;4998528;28;21012;-74
2022/11/13 15:09:45;;;;;;;11.32;9.32;;;;;;;;;;4998746;28;20567;-78
2022/11/13 15:12:29;;;;;;;12.93;9.30;;;;;;;;;;4998354;28;20056;-74
2022/11/13 15:15:17;;;;;;;11.50;9.57;;;;;;;;;;4999847;28;20841;-74
2022/11/13 15:18:02;;;;;;;14.05;8.57;;;;;;;;;;4999103;28;20095;-75
2022/11/13 15:20:47;;;;;;;14.23;8.75;;;;;;;;;;4997319;28;20048;-75
2022/11/13 15:23:31;;;;;;;10.45;8.23;;;;;;;;;;4999016;28;20103;-75
2022/11/13 15:26:15;;;;;;;12.27;9.15;;;;;;;;;;4999397;28;20057;-73
2022/11/13 15:28:59;;;;;;;12.35;9.27;;;;;;;;;;4999106;28;20056;-76
2022/11/13 15:31:45;;;;;;;15.85;9.48;;;;;;;;;;4997656;28;20056;-73
2022/11/13 15:34:30;;;;;;;13.98;8.80;;;;;;;;;;5010963;28;20072;-73
2022/11/13 15:37:16;;;;;;;12.88;8.15;;;;;;;;;;4999750;28;20072;-76
2022/11/13 15:40:00;;;;;;;11.23;8.40;;;;;;;;;;4999937;28;20056;-75
2022/11/13 15:42:45;;;;;;;16.48;9.60;;;;;;;;;;4998859;28;20061;-74
2022/11/13 15:45:29;;;;;;;14.70;9.20;;;;;;;;;;5000090;28;20052;-74
2022/11/13 15:48:13;;;;;;;13.60;9.65;;;;;;;;;;4998827;28;20964;-80
2022/11/13 15:50:57;;;;;;;13.77;9.20;;;;;;;;;;4998971;28;20195;-74
2022/11/13 15:53:44;;;;;;;14.40;9.93;;;;;;;;;;4998375;28;20204;-76
2022/11/13 15:56:29;;;;;;;14.55;9.40;;;;;;;;;;4990750;28;20430;-72
2022/11/13 15:59:14;;;;;;;27.30;14.00;;;;;;;;;;4998903;28;20168;-75
2022/11/13 16:01:58;;;;;;;101.53;42.47;;;;;;;;;;4998025;28;20131;-73
2022/11/13 16:04:43;;;;;;;14.65;9.93;;;;;;;;;;4999174;28;20049;-75
2022/11/13 16:07:30;;;;;;;18.08;9.98;;;;;;;;;;4999366;28;20100;-76
2022/11/13 16:10:15;;;;;;;14.75;10.10;;;;;;;;;;4998757;28;20050;-73
2022/11/13 16:12:59;;;;;;;14.45;9.98;;;;;;;;;;4998472;28;20128;-73
2022/11/13 16:15:43;;;;;;;16.60;11.88;;;;;;;;;;4998361;28;20048;-72
2022/11/13 16:18:30;;;;;;;15.27;11.00;;;;;;;;;;4995461;28;20064;-72
2022/11/13 16:21:14;;;;;;;16.05;11.55;;;;;;;;;;4997702;28;20056;-74
2022/11/13 16:23:58;;;;;;;16.02;11.27;;;;;;;;;;4998623;28;20100;-71
2022/11/13 16:26:55;;;;;;;16.10;11.85;;;;;;;;;;4999060;28;20158;-72
2022/11/13 16:29:39;;;;;;;16.88;11.75;;;;;;;;;;5000498;28;20057;-73
2022/11/13 16:32:24;;;;;;;17.58;12.35;;;;;;;;;;4994153;28;20237;-72